Time;durP1;ratioP1;P1;durP2;ratioP2;P2;SDS_P1;SDS_P2;PMS_P1;PMS_P2;Temp;Humidity;BMP_temperature;BMP_pressure;BME280_temperature;BME280_humidity;BME280_pressure;Samples;Min_cycle;Max_cycle;Signal;HPM_P1;HPM_P2
2022/09/06 00:01:59;;;;;;;7.53;5.07;;;;;;;;;;5069482;28;20261;-79
2022/09/06 00:04:26;;;;;;;7.00;4.43;;;;;;;;;;5073243;28;20237;-79
2022/09/06 00:06:55;;;;;;;5.97;4.80;;;;;;;;;;5065065;28;20824;-79
2022/09/06 00:09:22;;;;;;;7.33;4.73;;;;;;;;;;5062784;28;20322;-79
2022/09/06 00:11:49;;;;;;;8.07;5.07;;;;;;;;;;5069682;28;20290;-79
2022/09/06 00:14:16;;;;;;;8.97;5.40;;;;;;;;;;5067009;28;20282;-78
2022/09/06 00:16:43;;;;;;;9.80;4.90;;;;;;;;;;5056469;28;20936;-78
2022/09/06 00:19:11;;;;;;;8.20;5.07;;;;;;;;;;5061938;28;20633;-79
2022/09/06 00:21:38;;;;;;;10.83;5.20;;;;;;;;;;5057127;28;20236;-79
2022/09/06 00:24:07;;;;;;;8.77;5.10;;;;;;;;;;5067801;28;20223;-79
2022/09/06 00:26:34;;;;;;;9.07;4.70;;;;;;;;;;5064132;28;20210;-79
2022/09/06 00:29:01;;;;;;;12.27;5.03;;;;;;;;;;5066214;28;20223;-79
2022/09/06 00:31:28;;;;;;;7.83;5.03;;;;;;;;;;5075092;28;20277;-79
2022/09/06 00:33:55;;;;;;;8.90;4.55;;;;;;;;;;5071906;28;20682;-79
2022/09/06 00:36:23;;;;;;;8.13;4.90;;;;;;;;;;5063833;28;20286;-79
2022/09/06 00:38:50;;;;;;;7.20;4.53;;;;;;;;;;5072311;28;20218;-79
2022/09/06 00:41:19;;;;;;;7.53;4.47;;;;;;;;;;5059438;28;20322;-79
2022/09/06 00:43:46;;;;;;;7.28;4.93;;;;;;;;;;5071809;28;20271;-79
2022/09/06 00:46:16;;;;;;;7.77;4.73;;;;;;;;;;5065377;28;20279;-79
2022/09/06 00:48:43;;;;;;;7.77;4.57;;;;;;;;;;5058208;28;20243;-79
2022/09/06 00:51:12;;;;;;;8.43;4.43;;;;;;;;;;5067751;28;20291;-79
2022/09/06 00:53:39;;;;;;;9.33;4.70;;;;;;;;;;5064853;28;20219;-79
2022/09/06 00:56:08;;;;;;;8.47;4.63;;;;;;;;;;5059728;28;20206;-79
2022/09/06 00:58:37;;;;;;;10.40;4.60;;;;;;;;;;5073044;28;20294;-79
2022/09/06 01:01:05;;;;;;;7.70;4.97;;;;;;;;;;5070083;28;20192;-79
2022/09/06 01:03:33;;;;;;;8.03;4.50;;;;;;;;;;5062155;28;20196;-79
2022/09/06 01:06:04;;;;;;;7.73;4.30;;;;;;;;;;5056023;28;20231;-79
2022/09/06 01:08:38;;;;;;;8.03;4.50;;;;;;;;;;5059542;28;20251;-79
2022/09/06 01:11:12;;;;;;;10.57;4.80;;;;;;;;;;5072308;28;20287;-79
2022/09/06 01:13:47;;;;;;;10.00;4.63;;;;;;;;;;5069644;28;20286;-79
2022/09/06 01:16:16;;;;;;;7.13;4.53;;;;;;;;;;5062883;28;20306;-79
2022/09/06 01:18:49;;;;;;;9.57;4.37;;;;;;;;;;5061435;28;20310;-79
2022/09/06 01:21:26;;;;;;;8.10;4.47;;;;;;;;;;5065249;28;20192;-79
2022/09/06 01:24:12;;;;;;;8.37;4.20;;;;;;;;;;5055855;28;20652;-79
2022/09/06 01:26:56;;;;;;;9.97;4.13;;;;;;;;;;5067832;28;20242;-79
2022/09/06 01:29:28;;;;;;;10.67;4.50;;;;;;;;;;5072473;28;20730;-79
2022/09/06 01:31:57;;;;;;;10.40;4.23;;;;;;;;;;5069899;28;20258;-79
2022/09/06 01:34:28;;;;;;;11.73;4.23;;;;;;;;;;5063890;28;20282;-78
2022/09/06 01:36:58;;;;;;;9.53;4.10;;;;;;;;;;5061404;28;20254;-79
2022/09/06 01:39:27;;;;;;;9.73;4.23;;;;;;;;;;5069903;28;20223;-79
2022/09/06 01:41:55;;;;;;;11.23;4.67;;;;;;;;;;5063005;28;20262;-79
2022/09/06 01:44:23;;;;;;;8.83;4.47;;;;;;;;;;5064620;28;20195;-78
2022/09/06 01:46:56;;;;;;;9.10;4.13;;;;;;;;;;5068457;28;20282;-78
2022/09/06 01:49:28;;;;;;;10.97;4.13;;;;;;;;;;5057727;28;20307;-78
2022/09/06 01:51:58;;;;;;;9.20;4.23;;;;;;;;;;5054831;28;20290;-78
2022/09/06 01:54:29;;;;;;;9.83;4.37;;;;;;;;;;5071020;28;20237;-80
2022/09/06 01:57:04;;;;;;;11.33;4.30;;;;;;;;;;5070448;28;20672;-80
2022/09/06 01:59:37;;;;;;;9.97;4.47;;;;;;;;;;5072825;28;20307;-80
2022/09/06 02:02:08;;;;;;;12.17;4.57;;;;;;;;;;5065005;28;20257;-80
2022/09/06 02:04:40;;;;;;;11.43;4.60;;;;;;;;;;5059363;28;20191;-80
2022/09/06 02:07:12;;;;;;;8.53;4.67;;;;;;;;;;5066267;28;20630;-79
2022/09/06 02:09:41;;;;;;;7.10;4.00;;;;;;;;;;5067399;28;20306;-80
2022/09/06 02:12:11;;;;;;;12.33;4.33;;;;;;;;;;5058807;28;20231;-80
2022/09/06 02:14:41;;;;;;;9.73;4.20;;;;;;;;;;5061006;28;20196;-80
2022/09/06 02:17:11;;;;;;;10.53;4.37;;;;;;;;;;5059505;28;20234;-80
2022/09/06 02:19:42;;;;;;;8.77;4.40;;;;;;;;;;5069922;28;20613;-75
2022/09/06 02:22:11;;;;;;;10.17;4.57;;;;;;;;;;5060988;28;20282;-75
2022/09/06 02:24:39;;;;;;;8.30;4.13;;;;;;;;;;5054003;28;20231;-75
2022/09/06 02:27:07;;;;;;;8.87;3.80;;;;;;;;;;5064928;28;20246;-75
2022/09/06 02:29:34;;;;;;;11.30;4.10;;;;;;;;;;5068276;28;20237;-75
2022/09/06 02:32:04;;;;;;;9.43;3.73;;;;;;;;;;5068630;28;20233;-75
2022/09/06 02:34:33;;;;;;;7.00;4.00;;;;;;;;;;5068815;28;20290;-75
2022/09/06 02:37:01;;;;;;;11.07;4.13;;;;;;;;;;5058946;28;20235;-75
2022/09/06 02:39:28;;;;;;;7.90;4.23;;;;;;;;;;5062565;28;20283;-75
2022/09/06 02:41:55;;;;;;;11.23;3.33;;;;;;;;;;5061152;28;20322;-75
2022/09/06 02:44:22;;;;;;;7.80;3.40;;;;;;;;;;5064248;28;20715;-75
2022/09/06 02:46:49;;;;;;;12.27;3.73;;;;;;;;;;5068833;28;20230;-75
2022/09/06 02:49:17;;;;;;;13.50;4.40;;;;;;;;;;5056817;28;20305;-75
2022/09/06 02:51:45;;;;;;;7.00;3.67;;;;;;;;;;5071427;28;20286;-75
2022/09/06 02:54:12;;;;;;;11.43;4.60;;;;;;;;;;5063612;28;20851;-75
2022/09/06 02:56:40;;;;;;;10.33;3.90;;;;;;;;;;5056316;28;20291;-76
2022/09/06 02:59:07;;;;;;;9.37;3.57;;;;;;;;;;5056455;28;20302;-75
2022/09/06 03:01:34;;;;;;;11.87;3.73;;;;;;;;;;5060038;28;20199;-75
2022/09/06 03:04:01;;;;;;;13.23;4.00;;;;;;;;;;5060549;28;20258;-75
2022/09/06 03:06:29;;;;;;;10.57;3.97;;;;;;;;;;5059799;28;20199;-75
2022/09/06 03:08:58;;;;;;;8.80;3.60;;;;;;;;;;5066778;28;20267;-75
2022/09/06 03:11:26;;;;;;;11.57;3.57;;;;;;;;;;5053299;28;20204;-75
2022/09/06 03:13:53;;;;;;;10.27;3.57;;;;;;;;;;5062020;28;20623;-75
2022/09/06 03:16:21;;;;;;;9.80;3.77;;;;;;;;;;5066189;28;20227;-75
2022/09/06 03:18:48;;;;;;;13.97;3.77;;;;;;;;;;5071059;28;20203;-75
2022/09/06 03:21:15;;;;;;;8.43;3.60;;;;;;;;;;5070724;28;20301;-75
2022/09/06 03:23:42;;;;;;;8.57;3.30;;;;;;;;;;5070416;28;20243;-74
2022/09/06 03:26:11;;;;;;;12.50;3.57;;;;;;;;;;5068869;28;20221;-75
2022/09/06 03:28:38;;;;;;;11.80;3.80;;;;;;;;;;5061850;28;20313;-75
2022/09/06 03:31:06;;;;;;;11.33;3.13;;;;;;;;;;5062879;28;20310;-75
2022/09/06 03:33:33;;;;;;;10.57;2.97;;;;;;;;;;5061899;28;20207;-75
2022/09/06 03:36:01;;;;;;;10.07;3.10;;;;;;;;;;5061508;28;20276;-75
2022/09/06 03:38:29;;;;;;;13.60;3.17;;;;;;;;;;5053737;28;20235;-75
2022/09/06 03:40:56;;;;;;;8.43;3.20;;;;;;;;;;5059095;28;20237;-75
2022/09/06 03:43:26;;;;;;;8.93;3.33;;;;;;;;;;5061388;28;20314;-76
2022/09/06 03:45:55;;;;;;;8.33;2.97;;;;;;;;;;5057354;28;20211;-75
2022/09/06 03:48:24;;;;;;;10.50;2.93;;;;;;;;;;5061825;28;20199;-75
2022/09/06 03:50:53;;;;;;;10.90;3.10;;;;;;;;;;5068887;28;20218;-75
2022/09/06 03:53:21;;;;;;;9.63;3.10;;;;;;;;;;5057978;28;20227;-75
2022/09/06 03:55:48;;;;;;;10.37;3.00;;;;;;;;;;5067907;28;20295;-75
2022/09/06 03:58:16;;;;;;;12.20;2.90;;;;;;;;;;5062537;28;20259;-75
2022/09/06 04:00:45;;;;;;;10.20;2.70;;;;;;;;;;5063981;28;20286;-75
2022/09/06 04:03:12;;;;;;;11.87;2.90;;;;;;;;;;5069358;28;20286;-75
2022/09/06 04:05:39;;;;;;;10.63;2.97;;;;;;;;;;5065389;28;20250;-75
2022/09/06 04:08:06;;;;;;;9.60;2.87;;;;;;;;;;5059213;28;20238;-75
2022/09/06 04:10:34;;;;;;;9.60;2.93;;;;;;;;;;5061490;28;20316;-75
2022/09/06 04:13:01;;;;;;;10.03;3.03;;;;;;;;;;5066199;28;20348;-75
2022/09/06 04:15:28;;;;;;;9.70;2.80;;;;;;;;;;5066140;28;20655;-73
2022/09/06 04:17:57;;;;;;;9.40;2.40;;;;;;;;;;5056500;28;20231;-75
2022/09/06 04:20:24;;;;;;;10.03;3.23;;;;;;;;;;5064610;28;20252;-75
2022/09/06 04:22:52;;;;;;;10.63;3.40;;;;;;;;;;5070853;28;20304;-75
2022/09/06 04:25:19;;;;;;;11.43;3.20;;;;;;;;;;5056379;28;20206;-75
2022/09/06 04:27:46;;;;;;;13.10;2.87;;;;;;;;;;5062178;28;20289;-75
2022/09/06 04:30:14;;;;;;;13.47;2.97;;;;;;;;;;5055200;28;20645;-75
2022/09/06 04:32:41;;;;;;;11.43;2.77;;;;;;;;;;5064280;28;20242;-75
2022/09/06 04:35:10;;;;;;;12.97;2.83;;;;;;;;;;5062664;28;20282;-75
2022/09/06 04:37:37;;;;;;;12.17;3.07;;;;;;;;;;5063583;28;20283;-75
2022/09/06 04:40:04;;;;;;;9.63;3.27;;;;;;;;;;5058334;28;20223;-75
2022/09/06 04:42:32;;;;;;;14.83;3.30;;;;;;;;;;5064353;28;20702;-75
2022/09/06 04:44:59;;;;;;;11.17;2.93;;;;;;;;;;5055117;28;20290;-75
2022/09/06 04:47:26;;;;;;;16.10;3.33;;;;;;;;;;5065329;28;20278;-76
2022/09/06 04:49:54;;;;;;;9.83;3.00;;;;;;;;;;5068046;28;20310;-75
2022/09/06 04:52:22;;;;;;;11.67;3.20;;;;;;;;;;5061717;28;20276;-75
2022/09/06 04:54:49;;;;;;;14.80;3.60;;;;;;;;;;5055313;28;20361;-75
2022/09/06 04:57:16;;;;;;;10.20;2.77;;;;;;;;;;5062933;28;20273;-75
2022/09/06 04:59:44;;;;;;;10.17;2.60;;;;;;;;;;5067864;28;20249;-75
2022/09/06 05:02:11;;;;;;;9.20;3.07;;;;;;;;;;5061077;28;20231;-75
2022/09/06 05:04:38;;;;;;;10.33;3.17;;;;;;;;;;5065143;28;20715;-75
2022/09/06 05:07:07;;;;;;;8.90;3.00;;;;;;;;;;5069635;28;20237;-75
2022/09/06 05:09:36;;;;;;;19.80;3.20;;;;;;;;;;5072986;28;20231;-75
2022/09/06 05:12:04;;;;;;;11.17;3.27;;;;;;;;;;5073214;28;20207;-76
2022/09/06 05:14:31;;;;;;;13.13;4.23;;;;;;;;;;5059919;28;20234;-76
2022/09/06 05:16:58;;;;;;;12.87;2.83;;;;;;;;;;5073348;28;20290;-76
2022/09/06 05:19:25;;;;;;;9.80;3.13;;;;;;;;;;5071078;28;20679;-74
2022/09/06 05:21:52;;;;;;;15.60;3.17;;;;;;;;;;5068895;28;20634;-76
2022/09/06 05:24:20;;;;;;;14.23;3.50;;;;;;;;;;5054051;28;20299;-75
2022/09/06 05:26:48;;;;;;;14.17;3.30;;;;;;;;;;5067102;28;20238;-75
2022/09/06 05:29:15;;;;;;;11.20;2.97;;;;;;;;;;5058022;28;20232;-82
2022/09/06 05:31:43;;;;;;;15.40;3.00;;;;;;;;;;5073380;28;20280;-82
2022/09/06 05:34:12;;;;;;;12.43;3.13;;;;;;;;;;5060838;28;20636;-82
2022/09/06 05:36:40;;;;;;;13.30;3.13;;;;;;;;;;5064787;28;20883;-81
2022/09/06 05:39:07;;;;;;;12.63;3.10;;;;;;;;;;5060972;28;20200;-81
2022/09/06 05:41:34;;;;;;;7.43;2.70;;;;;;;;;;5067036;28;20790;-81
2022/09/06 05:44:03;;;;;;;11.47;3.23;;;;;;;;;;5070835;28;20261;-81
2022/09/06 05:46:30;;;;;;;11.30;3.20;;;;;;;;;;5066758;28;20599;-81
2022/09/06 05:49:00;;;;;;;13.38;3.10;;;;;;;;;;5065969;28;20226;-81
2022/09/06 05:51:27;;;;;;;13.33;4.27;;;;;;;;;;5053143;28;20215;-81
2022/09/06 05:53:55;;;;;;;9.83;2.73;;;;;;;;;;5061258;28;20234;-81
2022/09/06 05:56:23;;;;;;;14.43;3.40;;;;;;;;;;5062617;28;20199;-81
2022/09/06 05:58:50;;;;;;;15.17;3.33;;;;;;;;;;5063183;28;20219;-81
2022/09/06 06:01:20;;;;;;;15.10;3.10;;;;;;;;;;5052758;28;20246;-79
2022/09/06 06:03:51;;;;;;;11.00;3.10;;;;;;;;;;5052435;28;20811;-81
2022/09/06 06:06:18;;;;;;;13.27;2.97;;;;;;;;;;5052382;28;20227;-81
2022/09/06 06:08:45;;;;;;;13.50;3.10;;;;;;;;;;5052554;28;20239;-80
2022/09/06 06:11:13;;;;;;;10.57;2.83;;;;;;;;;;5055846;28;20385;-81
2022/09/06 06:13:42;;;;;;;11.90;2.50;;;;;;;;;;5051850;28;20228;-81
2022/09/06 06:16:09;;;;;;;13.68;3.03;;;;;;;;;;5067592;28;20214;-81
2022/09/06 06:18:38;;;;;;;11.05;2.47;;;;;;;;;;5055582;28;20223;-81
2022/09/06 06:21:09;;;;;;;11.02;2.75;;;;;;;;;;5067440;28;20235;-81
2022/09/06 06:23:36;;;;;;;10.98;2.78;;;;;;;;;;5060843;28;20628;-81
2022/09/06 06:26:03;;;;;;;15.70;3.45;;;;;;;;;;5063747;28;20282;-80
2022/09/06 06:28:31;;;;;;;13.27;2.80;;;;;;;;;;5061226;28;20235;-81
2022/09/06 06:30:58;;;;;;;10.05;2.92;;;;;;;;;;5060682;28;20308;-82
2022/09/06 06:33:25;;;;;;;12.50;2.90;;;;;;;;;;5052827;28;20243;-81
2022/09/06 06:36:01;;;;;;;12.60;2.67;;;;;;;;;;5052606;28;20636;-81
2022/09/06 06:38:32;;;;;;;17.45;3.10;;;;;;;;;;5052825;28;20242;-79
2022/09/06 06:40:59;;;;;;;15.95;3.35;;;;;;;;;;5058732;28;20230;-81
2022/09/06 06:43:27;;;;;;;11.07;2.60;;;;;;;;;;5071774;28;20266;-81
2022/09/06 06:45:54;;;;;;;12.40;2.72;;;;;;;;;;5070944;28;20285;-81
2022/09/06 06:48:22;;;;;;;10.27;2.72;;;;;;;;;;5085064;28;20241;-80
2022/09/06 06:50:49;;;;;;;10.38;3.13;;;;;;;;;;5065330;28;20231;-80
2022/09/06 06:53:18;;;;;;;13.77;2.80;;;;;;;;;;5070305;28;20682;-80
2022/09/06 06:55:48;;;;;;;12.95;2.78;;;;;;;;;;5072092;28;20824;-81
2022/09/06 06:58:15;;;;;;;11.80;2.78;;;;;;;;;;5072335;28;20219;-80
2022/09/06 07:00:43;;;;;;;13.57;2.83;;;;;;;;;;5072447;28;20219;-81
2022/09/06 07:03:10;;;;;;;9.75;2.38;;;;;;;;;;5071278;28;20202;-80
2022/09/06 07:05:38;;;;;;;9.95;2.72;;;;;;;;;;5071258;28;20230;-80
2022/09/06 07:08:05;;;;;;;11.93;3.08;;;;;;;;;;5071596;28;20196;-80
2022/09/06 07:10:34;;;;;;;13.30;2.97;;;;;;;;;;5071331;28;20635;-80
2022/09/06 07:13:01;;;;;;;13.02;2.80;;;;;;;;;;5072159;28;20264;-81
2022/09/06 07:15:29;;;;;;;10.40;2.20;;;;;;;;;;5072382;28;20566;-81
2022/09/06 07:17:56;;;;;;;14.10;2.92;;;;;;;;;;5072196;28;20242;-80
2022/09/06 07:20:24;;;;;;;10.85;2.35;;;;;;;;;;5072117;28;20286;-80
2022/09/06 07:22:59;;;;;;;11.23;2.50;;;;;;;;;;5068759;28;20605;-81
2022/09/06 07:25:27;;;;;;;11.70;2.90;;;;;;;;;;5059635;28;20708;-81
2022/09/06 07:28:00;;;;;;;6.35;2.30;;;;;;;;;;5072126;28;20206;-80
2022/09/06 07:30:27;;;;;;;11.32;2.80;;;;;;;;;;5071342;28;20202;-81
2022/09/06 07:32:54;;;;;;;10.60;2.35;;;;;;;;;;5072544;28;20202;-80
2022/09/06 07:35:21;;;;;;;10.93;2.78;;;;;;;;;;5071857;28;20315;-81
2022/09/06 07:37:56;;;;;;;12.20;2.20;;;;;;;;;;5071830;28;20682;-81
2022/09/06 07:40:23;;;;;;;14.05;2.53;;;;;;;;;;5071470;28;20236;-81
2022/09/06 07:42:50;;;;;;;13.13;2.70;;;;;;;;;;5071598;28;20364;-81
2022/09/06 07:45:19;;;;;;;7.07;2.00;;;;;;;;;;5071803;28;20294;-80
2022/09/06 07:47:53;;;;;;;10.38;2.55;;;;;;;;;;5071769;28;20249;-80
2022/09/06 07:50:21;;;;;;;9.10;2.45;;;;;;;;;;5070763;28;20207;-80
2022/09/06 07:52:48;;;;;;;8.30;2.25;;;;;;;;;;5071371;28;20294;-80
2022/09/06 07:55:15;;;;;;;12.25;2.42;;;;;;;;;;5071308;28;20286;-80
2022/09/06 07:57:42;;;;;;;10.35;2.60;;;;;;;;;;5071483;28;20258;-80
2022/09/06 08:00:11;;;;;;;12.32;2.50;;;;;;;;;;5071510;28;20238;-79
2022/09/06 08:02:39;;;;;;;11.30;2.38;;;;;;;;;;5071376;28;20199;-80
2022/09/06 08:05:07;;;;;;;7.38;2.35;;;;;;;;;;5071792;28;20203;-80
2022/09/06 08:07:34;;;;;;;7.68;2.50;;;;;;;;;;5071436;28;20202;-80
2022/09/06 08:10:02;;;;;;;7.22;2.38;;;;;;;;;;5071623;28;20202;-80
2022/09/06 08:12:29;;;;;;;10.00;2.75;;;;;;;;;;5070945;28;20305;-79
2022/09/06 08:14:56;;;;;;;13.00;2.65;;;;;;;;;;5071593;28;20195;-80
2022/09/06 08:17:26;;;;;;;7.80;2.40;;;;;;;;;;5071835;28;20230;-80
2022/09/06 08:19:54;;;;;;;7.65;2.30;;;;;;;;;;5072151;28;20213;-80
2022/09/06 08:22:22;;;;;;;9.48;2.20;;;;;;;;;;5075449;28;20285;-80
2022/09/06 08:24:49;;;;;;;10.50;2.15;;;;;;;;;;5075717;28;20637;-81
2022/09/06 08:27:16;;;;;;;11.45;2.33;;;;;;;;;;5075410;28;20628;-80
2022/09/06 08:29:43;;;;;;;10.48;2.20;;;;;;;;;;5075576;28;20282;-80
2022/09/06 08:32:10;;;;;;;12.23;2.53;;;;;;;;;;5075568;28;20258;-80
2022/09/06 08:34:37;;;;;;;11.98;2.45;;;;;;;;;;5075725;28;20289;-80
2022/09/06 08:37:06;;;;;;;11.30;2.65;;;;;;;;;;5075220;28;20226;-81
2022/09/06 08:39:33;;;;;;;14.93;2.85;;;;;;;;;;5075189;28;20234;-80
2022/09/06 08:42:02;;;;;;;12.43;3.03;;;;;;;;;;5074096;28;20229;-80
2022/09/06 08:44:32;;;;;;;10.82;2.78;;;;;;;;;;5055354;28;20294;-80
2022/09/06 08:47:00;;;;;;;12.00;2.30;;;;;;;;;;5055005;28;20222;-80
2022/09/06 08:49:29;;;;;;;12.13;2.40;;;;;;;;;;5055164;28;20231;-80
2022/09/06 08:52:04;;;;;;;10.95;2.47;;;;;;;;;;5073598;28;20318;-80
2022/09/06 08:54:35;;;;;;;13.02;2.65;;;;;;;;;;5075246;28;20248;-81
2022/09/06 08:57:05;;;;;;;11.90;2.28;;;;;;;;;;5075084;28;20249;-79
2022/09/06 08:59:36;;;;;;;8.15;2.47;;;;;;;;;;5075133;28;20227;-81
2022/09/06 09:02:10;;;;;;;11.55;2.72;;;;;;;;;;5074959;28;20191;-81
2022/09/06 09:04:39;;;;;;;11.85;2.58;;;;;;;;;;5074822;28;20706;-80
2022/09/06 09:07:12;;;;;;;11.05;2.00;;;;;;;;;;5073076;28;20195;-80
2022/09/06 09:09:41;;;;;;;12.13;2.75;;;;;;;;;;5074543;28;20286;-80
2022/09/06 09:12:09;;;;;;;8.00;2.22;;;;;;;;;;5074788;28;20314;-80
2022/09/06 09:14:37;;;;;;;10.25;2.80;;;;;;;;;;5073835;28;20234;-81
2022/09/06 09:17:07;;;;;;;12.05;2.50;;;;;;;;;;5074836;28;20324;-80
2022/09/06 09:19:36;;;;;;;10.93;2.35;;;;;;;;;;5074370;28;20230;-80
2022/09/06 09:22:03;;;;;;;15.05;2.78;;;;;;;;;;5074126;28;20199;-80
2022/09/06 09:24:31;;;;;;;8.70;2.40;;;;;;;;;;5074526;28;20195;-80
2022/09/06 09:27:03;;;;;;;13.00;2.67;;;;;;;;;;5074586;28;20253;-80
2022/09/06 09:29:30;;;;;;;10.77;2.38;;;;;;;;;;5073831;28;20722;-81
2022/09/06 09:31:57;;;;;;;10.52;2.85;;;;;;;;;;5073669;28;20806;-79
2022/09/06 09:34:29;;;;;;;12.65;2.83;;;;;;;;;;5073696;28;20241;-80
2022/09/06 09:37:11;;;;;;;12.93;2.70;;;;;;;;;;5074320;28;20286;-80
2022/09/06 09:39:39;;;;;;;12.50;2.72;;;;;;;;;;5074090;28;20203;-80
2022/09/06 09:42:09;;;;;;;14.00;2.72;;;;;;;;;;5074080;28;20258;-80
2022/09/06 09:44:36;;;;;;;9.90;2.60;;;;;;;;;;5074185;28;20205;-80
2022/09/06 09:47:10;;;;;;;13.18;2.85;;;;;;;;;;5074015;28;20203;-80
2022/09/06 09:49:38;;;;;;;9.13;2.70;;;;;;;;;;5072573;28;20668;-80
2022/09/06 09:52:06;;;;;;;10.90;2.72;;;;;;;;;;5054048;28;20274;-81
2022/09/06 09:54:36;;;;;;;14.73;2.70;;;;;;;;;;5053736;28;20200;-81
2022/09/06 09:57:09;;;;;;;10.82;2.40;;;;;;;;;;5054203;28;20204;-80
2022/09/06 09:59:40;;;;;;;17.25;2.92;;;;;;;;;;5053541;28;20731;-80
2022/09/06 10:02:17;;;;;;;12.05;3.08;;;;;;;;;;5060307;28;20282;-81
2022/09/06 10:04:45;;;;;;;11.82;2.58;;;;;;;;;;5071281;28;20229;-81
2022/09/06 10:07:14;;;;;;;12.05;2.47;;;;;;;;;;5068296;28;20750;-80
2022/09/06 10:09:42;;;;;;;10.25;2.30;;;;;;;;;;5068066;28;20195;-80
2022/09/06 10:12:16;;;;;;;8.98;2.08;;;;;;;;;;5053472;28;20231;-79
2022/09/06 10:14:44;;;;;;;9.85;2.60;;;;;;;;;;5053411;28;20227;-80
2022/09/06 10:17:19;;;;;;;9.93;2.25;;;;;;;;;;5053236;28;20238;-80
2022/09/06 10:19:47;;;;;;;9.80;2.78;;;;;;;;;;5062886;28;20233;-80
2022/09/06 10:22:26;;;;;;;12.93;2.60;;;;;;;;;;5072709;28;20659;-80
2022/09/06 10:24:59;;;;;;;13.77;2.97;;;;;;;;;;5072687;28;20231;-80
2022/09/06 10:27:29;;;;;;;10.48;2.78;;;;;;;;;;5073156;28;20238;-80
2022/09/06 10:29:59;;;;;;;16.10;2.95;;;;;;;;;;5072813;28;20207;-79
2022/09/06 10:32:31;;;;;;;12.10;2.38;;;;;;;;;;5073012;28;20227;-80
2022/09/06 10:35:08;;;;;;;12.65;2.50;;;;;;;;;;5073029;28;20642;-80
2022/09/06 10:37:48;;;;;;;12.65;2.70;;;;;;;;;;5073047;28;20194;-80
2022/09/06 10:40:20;;;;;;;11.13;2.63;;;;;;;;;;5072719;28;20201;-81
2022/09/06 10:42:51;;;;;;;9.13;2.58;;;;;;;;;;5072364;28;20321;-81
2022/09/06 10:45:28;;;;;;;9.90;2.50;;;;;;;;;;5072332;28;20214;-80
2022/09/06 10:47:57;;;;;;;12.15;3.55;;;;;;;;;;5072287;28;20229;-80
2022/09/06 10:50:26;;;;;;;10.15;2.67;;;;;;;;;;5072496;28;20210;-80
2022/09/06 10:52:54;;;;;;;12.57;3.30;;;;;;;;;;5072668;28;20227;-79
2022/09/06 10:55:21;;;;;;;14.05;3.55;;;;;;;;;;5072481;28;20257;-80
2022/09/06 10:57:55;;;;;;;6.70;1.65;;;;;;;;;;5071669;28;20248;-79
2022/09/06 11:00:22;;;;;;;4.85;1.90;;;;;;;;;;5071217;28;20230;-79
2022/09/06 11:02:53;;;;;;;7.80;2.30;;;;;;;;;;5071352;28;20225;-79
2022/09/06 11:05:22;;;;;;;7.85;2.35;;;;;;;;;;5071315;28;20754;-79
2022/09/06 11:07:53;;;;;;;7.38;2.45;;;;;;;;;;5071895;28;20229;-79
2022/09/06 11:10:22;;;;;;;7.22;2.13;;;;;;;;;;5072278;28;20238;-79
2022/09/06 11:12:53;;;;;;;8.43;2.22;;;;;;;;;;5061744;28;20253;-79
2022/09/06 11:15:22;;;;;;;8.00;2.33;;;;;;;;;;5072038;28;20195;-79
2022/09/06 11:17:52;;;;;;;10.75;2.50;;;;;;;;;;5071646;28;20237;-79
2022/09/06 11:20:23;;;;;;;8.85;2.30;;;;;;;;;;5071810;28;20670;-79
2022/09/06 11:23:07;;;;;;;6.80;2.30;;;;;;;;;;5071780;28;20282;-79
2022/09/06 11:25:52;;;;;;;9.10;3.20;;;;;;;;;;5072149;28;20285;-80
2022/09/06 11:28:26;;;;;;;6.15;2.03;;;;;;;;;;5072151;28;20741;-79
2022/09/06 11:30:55;;;;;;;5.57;2.13;;;;;;;;;;5071412;28;20260;-80
2022/09/06 11:33:24;;;;;;;8.20;1.88;;;;;;;;;;5072200;28;20241;-79
2022/09/06 11:35:52;;;;;;;7.32;1.92;;;;;;;;;;5065245;28;20227;-80
2022/09/06 11:38:21;;;;;;;8.90;1.83;;;;;;;;;;5052087;28;20200;-80
2022/09/06 11:40:49;;;;;;;3.72;1.27;;;;;;;;;;5051674;28;20729;-79
2022/09/06 11:43:18;;;;;;;5.70;1.70;;;;;;;;;;5051591;28;20265;-79
2022/09/06 11:45:48;;;;;;;6.50;1.60;;;;;;;;;;5051758;28;20235;-79
2022/09/06 11:48:33;;;;;;;7.90;1.80;;;;;;;;;;5071872;28;20206;-79
2022/09/06 11:51:02;;;;;;;7.95;2.05;;;;;;;;;;5071536;28;20211;-80
2022/09/06 11:53:30;;;;;;;5.85;1.70;;;;;;;;;;5072120;28;20646;-80
2022/09/06 11:56:12;;;;;;;9.40;2.10;;;;;;;;;;5071548;28;20234;-80
2022/09/06 11:58:46;;;;;;;6.18;1.60;;;;;;;;;;5059897;28;20229;-80
2022/09/06 12:01:32;;;;;;;8.10;1.80;;;;;;;;;;5051359;28;20234;-80
2022/09/06 12:04:05;;;;;;;5.28;1.67;;;;;;;;;;5052161;28;20230;-80
2022/09/06 12:06:34;;;;;;;4.30;1.42;;;;;;;;;;5052232;28;20204;-80
2022/09/06 12:09:01;;;;;;;5.07;1.35;;;;;;;;;;5051639;28;20230;-80
2022/09/06 12:11:37;;;;;;;5.18;1.55;;;;;;;;;;5051796;28;20675;-80
2022/09/06 12:14:06;;;;;;;5.15;1.70;;;;;;;;;;5065217;28;20250;-80
2022/09/06 12:16:52;;;;;;;5.03;1.35;;;;;;;;;;5071633;28;20227;-80
2022/09/06 12:19:34;;;;;;;5.60;1.70;;;;;;;;;;5071243;28;20249;-80
2022/09/06 12:22:02;;;;;;;5.35;1.48;;;;;;;;;;5071190;28;20282;-80
2022/09/06 12:24:52;;;;;;;4.65;1.30;;;;;;;;;;5071817;28;20285;-80
2022/09/06 12:27:21;;;;;;;6.70;1.80;;;;;;;;;;5071164;28;20195;-80
2022/09/06 12:29:56;;;;;;;6.53;1.90;;;;;;;;;;5071313;28;20218;-80
2022/09/06 12:32:26;;;;;;;3.70;1.58;;;;;;;;;;5071099;28;20318;-80
2022/09/06 12:34:54;;;;;;;5.65;1.90;;;;;;;;;;5071220;28;20243;-80
2022/09/06 12:37:33;;;;;;;5.07;1.60;;;;;;;;;;5070799;28;20306;-80
2022/09/06 12:40:01;;;;;;;6.32;1.80;;;;;;;;;;5071531;28;20242;-80
2022/09/06 12:42:28;;;;;;;5.53;1.65;;;;;;;;;;5070921;28;20258;-80
2022/09/06 12:44:56;;;;;;;8.13;2.05;;;;;;;;;;5070690;28;20195;-80
2022/09/06 12:47:25;;;;;;;4.28;1.60;;;;;;;;;;5070488;28;20238;-80
2022/09/06 12:50:06;;;;;;;6.78;1.77;;;;;;;;;;5071224;28;20714;-80
2022/09/06 12:52:43;;;;;;;4.50;1.90;;;;;;;;;;5070901;28;20714;-80
2022/09/06 12:55:15;;;;;;;5.85;1.83;;;;;;;;;;5071190;28;20274;-80
2022/09/06 12:57:47;;;;;;;6.38;1.85;;;;;;;;;;5070508;28;20301;-80
2022/09/06 13:00:15;;;;;;;5.45;1.60;;;;;;;;;;5070075;28;20227;-80
2022/09/06 13:02:46;;;;;;;6.05;1.77;;;;;;;;;;5071033;28;20234;-79
2022/09/06 13:05:13;;;;;;;4.80;1.70;;;;;;;;;;5056330;28;20253;-79
2022/09/06 13:07:44;;;;;;;6.57;1.58;;;;;;;;;;5052924;28;20231;-79
2022/09/06 13:10:13;;;;;;;4.88;1.58;;;;;;;;;;5054952;28;20250;-79
2022/09/06 13:12:43;;;;;;;6.50;1.65;;;;;;;;;;5054118;28;20875;-79
2022/09/06 13:15:13;;;;;;;4.32;1.77;;;;;;;;;;5054537;28;20227;-80
2022/09/06 13:17:41;;;;;;;4.38;1.88;;;;;;;;;;5054505;28;20239;-79
2022/09/06 13:20:12;;;;;;;6.32;1.70;;;;;;;;;;5074803;28;20203;-80
2022/09/06 13:22:45;;;;;;;6.70;1.80;;;;;;;;;;5071262;28;20223;-79
2022/09/06 13:25:16;;;;;;;3.97;1.42;;;;;;;;;;5074811;28;20234;-79
2022/09/06 13:27:45;;;;;;;6.38;1.88;;;;;;;;;;5073928;28;20235;-79
2022/09/06 13:30:27;;;;;;;5.80;1.92;;;;;;;;;;5074309;28;20195;-79
2022/09/06 13:32:55;;;;;;;4.55;1.80;;;;;;;;;;5074111;28;20262;-79
2022/09/06 13:35:23;;;;;;;4.57;1.95;;;;;;;;;;5073887;28;20195;-79
2022/09/06 13:37:52;;;;;;;4.53;1.75;;;;;;;;;;5073363;28;20598;-79
2022/09/06 13:40:41;;;;;;;5.53;1.83;;;;;;;;;;5074193;28;20234;-79
2022/09/06 13:43:11;;;;;;;3.78;1.75;;;;;;;;;;5073261;28;20231;-79
2022/09/06 13:45:39;;;;;;;5.82;1.70;;;;;;;;;;5073859;28;20199;-80
2022/09/06 13:48:07;;;;;;;4.88;1.80;;;;;;;;;;5073761;28;20296;-79
2022/09/06 13:50:34;;;;;;;5.72;1.90;;;;;;;;;;5073586;28;20233;-79
2022/09/06 13:53:03;;;;;;;6.32;1.80;;;;;;;;;;5073629;28;20226;-79
2022/09/06 13:55:32;;;;;;;4.72;1.75;;;;;;;;;;5073620;28;20429;-80
2022/09/06 13:57:59;;;;;;;5.10;1.77;;;;;;;;;;5054761;28;20222;-79
2022/09/06 14:00:27;;;;;;;4.45;1.70;;;;;;;;;;5060148;28;20238;-79
2022/09/06 14:02:54;;;;;;;7.72;1.90;;;;;;;;;;5073166;28;20226;-80
2022/09/06 14:05:21;;;;;;;4.28;1.20;;;;;;;;;;5073654;28;20206;-79
2022/09/06 14:07:49;;;;;;;2.95;0.93;;;;;;;;;;5073269;28;20603;-79
2022/09/06 14:10:20;;;;;;;3.25;1.05;;;;;;;;;;5072843;28;20632;-80
2022/09/06 14:12:47;;;;;;;3.25;0.90;;;;;;;;;;5073576;28;20223;-80
2022/09/06 14:15:15;;;;;;;3.83;0.80;;;;;;;;;;5072738;28;20223;-80
2022/09/06 14:17:42;;;;;;;5.05;0.95;;;;;;;;;;5072815;28;20768;-81
2022/09/06 14:20:10;;;;;;;4.30;1.00;;;;;;;;;;5073332;28;20230;-80
2022/09/06 14:22:37;;;;;;;3.90;1.08;;;;;;;;;;5073502;28;20317;-80
2022/09/06 14:25:05;;;;;;;2.78;1.05;;;;;;;;;;5072890;28;20268;-75
2022/09/06 14:27:35;;;;;;;4.18;1.20;;;;;;;;;;5072719;28;20205;-74
2022/09/06 14:30:02;;;;;;;4.32;0.90;;;;;;;;;;5073067;28;20199;-74
2022/09/06 14:32:29;;;;;;;3.75;1.08;;;;;;;;;;5072327;28;20671;-74
2022/09/06 14:34:56;;;;;;;3.05;1.10;;;;;;;;;;5069451;28;20231;-75
2022/09/06 14:37:24;;;;;;;4.93;1.20;;;;;;;;;;5052496;28;20235;-74
2022/09/06 14:39:51;;;;;;;4.57;1.00;;;;;;;;;;5059085;28;20238;-74
2022/09/06 14:42:18;;;;;;;3.95;1.20;;;;;;;;;;5072516;28;20265;-74
2022/09/06 14:44:47;;;;;;;4.22;1.40;;;;;;;;;;5072227;28;20264;-74
2022/09/06 14:47:14;;;;;;;7.30;1.33;;;;;;;;;;5072722;28;20206;-74
2022/09/06 14:49:41;;;;;;;3.83;1.05;;;;;;;;;;5066857;28;20196;-80